sensor_id;sensor_type;location;lat;lon;timestamp;P1;durP1;ratioP1;P2;durP2;ratioP2
49678;SDS011;35570;48.218;16.326;2023-10-31T00:08:54;4.70;;;2.33;;
49678;SDS011;35570;48.218;16.326;2023-10-31T00:11:20;5.07;;;2.28;;
49678;SDS011;35570;48.218;16.326;2023-10-31T00:21:31;5.60;;;2.10;;
49678;SDS011;35570;48.218;16.326;2023-10-31T05:35:32;0.75;;;0.40;;
49678;SDS011;35570;48.218;16.326;2023-10-31T05:37:59;0.82;;;0.50;;
49678;SDS011;35570;48.218;16.326;2023-10-31T05:40:27;1.73;;;0.50;;
49678;SDS011;35570;48.218;16.326;2023-10-31T05:42:54;0.65;;;0.50;;
49678;SDS011;35570;48.218;16.326;2023-10-31T05:45:20;1.15;;;0.57;;
49678;SDS011;35570;48.218;16.326;2023-10-31T05:47:46;0.50;;;0.30;;
49678;SDS011;35570;48.218;16.326;2023-10-31T05:50:12;0.40;;;0.30;;
49678;SDS011;35570;48.218;16.326;2023-10-31T05:52:38;1.13;;;0.50;;
49678;SDS011;35570;48.218;16.326;2023-10-31T05:57:39;2.85;;;0.40;;
49678;SDS011;35570;48.218;16.326;2023-10-31T06:00:05;0.68;;;0.40;;
49678;SDS011;35570;48.218;16.326;2023-10-31T06:02:32;4.70;;;1.90;;
49678;SDS011;35570;48.218;16.326;2023-10-31T06:04:58;10.05;;;2.67;;
49678;SDS011;35570;48.218;16.326;2023-10-31T06:07:24;9.65;;;3.10;;
49678;SDS011;35570;48.218;16.326;2023-10-31T06:09:50;15.77;;;4.18;;
49678;SDS011;35570;48.218;16.326;2023-10-31T06:12:16;11.00;;;3.53;;
49678;SDS011;35570;48.218;16.326;2023-10-31T06:14:42;19.77;;;4.88;;
49678;SDS011;35570;48.218;16.326;2023-10-31T06:17:08;17.85;;;6.15;;
49678;SDS011;35570;48.218;16.326;2023-10-31T06:19:34;19.67;;;5.07;;
49678;SDS011;35570;48.218;16.326;2023-10-31T06:22:09;11.50;;;3.35;;
49678;SDS011;35570;48.218;16.326;2023-10-31T06:24:35;10.90;;;4.00;;
49678;SDS011;35570;48.218;16.326;2023-10-31T06:27:01;14.20;;;5.40;;
49678;SDS011;35570;48.218;16.326;2023-10-31T06:31:58;10.60;;;3.97;;
49678;SDS011;35570;48.218;16.326;2023-10-31T06:34:24;9.90;;;4.68;;
49678;SDS011;35570;48.218;16.326;2023-10-31T06:36:50;4.97;;;1.67;;
49678;SDS011;35570;48.218;16.326;2023-10-31T06:39:17;9.15;;;3.17;;
49678;SDS011;35570;48.218;16.326;2023-10-31T06:41:42;13.48;;;6.07;;
49678;SDS011;35570;48.218;16.326;2023-10-31T06:44:08;2.80;;;1.33;;
49678;SDS011;35570;48.218;16.326;2023-10-31T06:46:34;7.63;;;3.72;;
49678;SDS011;35570;48.218;16.326;2023-10-31T06:49:00;5.45;;;2.60;;
49678;SDS011;35570;48.218;16.326;2023-10-31T06:51:25;11.65;;;5.28;;
49678;SDS011;35570;48.218;16.326;2023-10-31T06:53:51;10.95;;;4.75;;
49678;SDS011;35570;48.218;16.326;2023-10-31T06:56:17;6.60;;;3.17;;
49678;SDS011;35570;48.218;16.326;2023-10-31T06:58:43;9.98;;;5.22;;
49678;SDS011;35570;48.218;16.326;2023-10-31T07:01:09;7.30;;;2.92;;
49678;SDS011;35570;48.218;16.326;2023-10-31T07:03:36;8.65;;;2.80;;
49678;SDS011;35570;48.218;16.326;2023-10-31T07:06:02;5.55;;;2.75;;
49678;SDS011;35570;48.218;16.326;2023-10-31T07:08:28;9.50;;;4.05;;
49678;SDS011;35570;48.218;16.326;2023-10-31T07:10:54;7.15;;;3.38;;
49678;SDS011;35570;48.218;16.326;2023-10-31T07:13:20;3.65;;;1.55;;
49678;SDS011;35570;48.218;16.326;2023-10-31T07:15:46;6.35;;;3.55;;
49678;SDS011;35570;48.218;16.326;2023-10-31T07:18:13;8.63;;;3.50;;
49678;SDS011;35570;48.218;16.326;2023-10-31T07:20:39;6.25;;;3.15;;
49678;SDS011;35570;48.218;16.326;2023-10-31T07:23:04;9.32;;;4.63;;
49678;SDS011;35570;48.218;16.326;2023-10-31T07:25:30;6.20;;;2.67;;
49678;SDS011;35570;48.218;16.326;2023-10-31T07:27:56;13.73;;;5.60;;
49678;SDS011;35570;48.218;16.326;2023-10-31T07:30:22;6.32;;;2.35;;
49678;SDS011;35570;48.218;16.326;2023-10-31T07:32:47;8.02;;;3.80;;
49678;SDS011;35570;48.218;16.326;2023-10-31T07:35:13;7.70;;;3.65;;
49678;SDS011;35570;48.218;16.326;2023-10-31T07:37:39;5.05;;;2.85;;
49678;SDS011;35570;48.218;16.326;2023-10-31T07:40:05;8.23;;;3.15;;
49678;SDS011;35570;48.218;16.326;2023-10-31T07:42:31;5.40;;;2.42;;
49678;SDS011;35570;48.218;16.326;2023-10-31T07:44:57;5.03;;;1.65;;
49678;SDS011;35570;48.218;16.326;2023-10-31T07:47:22;6.38;;;2.78;;
49678;SDS011;35570;48.218;16.326;2023-10-31T07:49:48;5.45;;;2.63;;
49678;SDS011;35570;48.218;16.326;2023-10-31T07:52:14;6.63;;;2.70;;
49678;SDS011;35570;48.218;16.326;2023-10-31T07:54:40;6.38;;;3.47;;
49678;SDS011;35570;48.218;16.326;2023-10-31T07:57:06;8.10;;;3.58;;
49678;SDS011;35570;48.218;16.326;2023-10-31T07:59:33;6.15;;;3.03;;
49678;SDS011;35570;48.218;16.326;2023-10-31T08:01:59;6.20;;;2.00;;
49678;SDS011;35570;48.218;16.326;2023-10-31T08:04:25;7.53;;;3.33;;
49678;SDS011;35570;48.218;16.326;2023-10-31T08:06:53;7.07;;;3.63;;
49678;SDS011;35570;48.218;16.326;2023-10-31T08:09:19;9.45;;;4.03;;
49678;SDS011;35570;48.218;16.326;2023-10-31T08:11:44;4.18;;;2.47;;
49678;SDS011;35570;48.218;16.326;2023-10-31T08:14:10;8.55;;;3.78;;
49678;SDS011;35570;48.218;16.326;2023-10-31T08:16:36;5.68;;;2.20;;
49678;SDS011;35570;48.218;16.326;2023-10-31T08:19:02;9.15;;;3.28;;
49678;SDS011;35570;48.218;16.326;2023-10-31T08:21:27;3.13;;;1.05;;
49678;SDS011;35570;48.218;16.326;2023-10-31T08:23:58;6.13;;;3.08;;
49678;SDS011;35570;48.218;16.326;2023-10-31T08:26:24;6.45;;;2.97;;
49678;SDS011;35570;48.218;16.326;2023-10-31T08:28:50;4.03;;;1.92;;
49678;SDS011;35570;48.218;16.326;2023-10-31T08:31:16;3.53;;;1.35;;
49678;SDS011;35570;48.218;16.326;2023-10-31T08:33:42;6.35;;;2.15;;
49678;SDS011;35570;48.218;16.326;2023-10-31T08:36:08;8.20;;;4.22;;
49678;SDS011;35570;48.218;16.326;2023-10-31T08:38:34;7.82;;;4.32;;
49678;SDS011;35570;48.218;16.326;2023-10-31T08:40:59;9.75;;;4.75;;
49678;SDS011;35570;48.218;16.326;2023-10-31T08:43:25;5.20;;;2.80;;
49678;SDS011;35570;48.218;16.326;2023-10-31T08:45:51;7.28;;;3.65;;
49678;SDS011;35570;48.218;16.326;2023-10-31T08:48:17;9.32;;;4.32;;
49678;SDS011;35570;48.218;16.326;2023-10-31T08:50:43;10.07;;;4.72;;
49678;SDS011;35570;48.218;16.326;2023-10-31T08:53:08;3.85;;;1.88;;
49678;SDS011;35570;48.218;16.326;2023-10-31T08:55:34;6.97;;;3.22;;
49678;SDS011;35570;48.218;16.326;2023-10-31T08:58:00;2.78;;;0.82;;
49678;SDS011;35570;48.218;16.326;2023-10-31T09:00:25;2.28;;;0.90;;
49678;SDS011;35570;48.218;16.326;2023-10-31T09:02:53;1.02;;;0.40;;
49678;SDS011;35570;48.218;16.326;2023-10-31T09:05:19;0.50;;;0.30;;
49678;SDS011;35570;48.218;16.326;2023-10-31T09:07:44;2.60;;;1.00;;
49678;SDS011;35570;48.218;16.326;2023-10-31T09:10:11;2.85;;;0.80;;
49678;SDS011;35570;48.218;16.326;2023-10-31T09:12:37;2.85;;;1.10;;
49678;SDS011;35570;48.218;16.326;2023-10-31T09:15:03;0.75;;;0.43;;
49678;SDS011;35570;48.218;16.326;2023-10-31T09:17:30;1.15;;;0.50;;
49678;SDS011;35570;48.218;16.326;2023-10-31T09:19:57;1.40;;;1.05;;
49678;SDS011;35570;48.218;16.326;2023-10-31T09:22:24;1.65;;;0.80;;
49678;SDS011;35570;48.218;16.326;2023-10-31T09:24:49;4.40;;;2.38;;
49678;SDS011;35570;48.218;16.326;2023-10-31T09:27:15;1.40;;;0.57;;
49678;SDS011;35570;48.218;16.326;2023-10-31T09:29:41;2.38;;;0.65;;
49678;SDS011;35570;48.218;16.326;2023-10-31T09:32:06;1.45;;;0.60;;
49678;SDS011;35570;48.218;16.326;2023-10-31T09:34:32;3.92;;;2.15;;
49678;SDS011;35570;48.218;16.326;2023-10-31T09:36:58;3.33;;;2.03;;
49678;SDS011;35570;48.218;16.326;2023-10-31T09:39:23;4.50;;;2.28;;
49678;SDS011;35570;48.218;16.326;2023-10-31T09:41:49;3.63;;;1.20;;
49678;SDS011;35570;48.218;16.326;2023-10-31T09:44:15;3.42;;;0.60;;
49678;SDS011;35570;48.218;16.326;2023-10-31T09:46:41;2.10;;;0.90;;
49678;SDS011;35570;48.218;16.326;2023-10-31T09:49:07;1.27;;;0.60;;
49678;SDS011;35570;48.218;16.326;2023-10-31T09:51:33;2.72;;;1.42;;
49678;SDS011;35570;48.218;16.326;2023-10-31T09:53:59;2.13;;;1.50;;
49678;SDS011;35570;48.218;16.326;2023-10-31T09:56:28;1.58;;;1.10;;
49678;SDS011;35570;48.218;16.326;2023-10-31T09:59:00;8.52;;;4.80;;
49678;SDS011;35570;48.218;16.326;2023-10-31T10:01:26;4.45;;;2.80;;
49678;SDS011;35570;48.218;16.326;2023-10-31T10:03:52;3.80;;;2.58;;
49678;SDS011;35570;48.218;16.326;2023-10-31T10:06:19;5.03;;;2.63;;
49678;SDS011;35570;48.218;16.326;2023-10-31T10:08:48;5.10;;;2.70;;
49678;SDS011;35570;48.218;16.326;2023-10-31T10:11:14;3.60;;;2.00;;
49678;SDS011;35570;48.218;16.326;2023-10-31T10:13:40;3.42;;;1.88;;
49678;SDS011;35570;48.218;16.326;2023-10-31T10:16:06;4.80;;;2.25;;
49678;SDS011;35570;48.218;16.326;2023-10-31T10:18:32;6.32;;;3.75;;
49678;SDS011;35570;48.218;16.326;2023-10-31T10:21:01;6.50;;;3.08;;
49678;SDS011;35570;48.218;16.326;2023-10-31T10:23:28;7.85;;;3.80;;
49678;SDS011;35570;48.218;16.326;2023-10-31T10:25:55;5.90;;;3.60;;
49678;SDS011;35570;48.218;16.326;2023-10-31T10:28:22;9.18;;;5.38;;
49678;SDS011;35570;48.218;16.326;2023-10-31T10:30:50;4.18;;;2.10;;
49678;SDS011;35570;48.218;16.326;2023-10-31T10:33:16;6.25;;;3.20;;
49678;SDS011;35570;48.218;16.326;2023-10-31T10:35:43;3.85;;;1.50;;
49678;SDS011;35570;48.218;16.326;2023-10-31T10:38:16;4.32;;;2.70;;
49678;SDS011;35570;48.218;16.326;2023-10-31T10:40:44;2.97;;;1.80;;
49678;SDS011;35570;48.218;16.326;2023-10-31T10:43:28;3.75;;;2.50;;
49678;SDS011;35570;48.218;16.326;2023-10-31T10:46:02;5.45;;;1.70;;
49678;SDS011;35570;48.218;16.326;2023-10-31T10:48:30;4.57;;;3.22;;
49678;SDS011;35570;48.218;16.326;2023-10-31T10:53:35;2.53;;;1.10;;
49678;SDS011;35570;48.218;16.326;2023-10-31T10:56:08;3.83;;;1.88;;
49678;SDS011;35570;48.218;16.326;2023-10-31T11:01:20;1.60;;;1.13;;
49678;SDS011;35570;48.218;16.326;2023-10-31T11:03:46;3.08;;;1.58;;
49678;SDS011;35570;48.218;16.326;2023-10-31T11:06:12;3.53;;;2.30;;
49678;SDS011;35570;48.218;16.326;2023-10-31T11:08:39;3.05;;;1.95;;
49678;SDS011;35570;48.218;16.326;2023-10-31T11:11:05;5.40;;;2.33;;
49678;SDS011;35570;48.218;16.326;2023-10-31T11:13:31;3.17;;;1.92;;
49678;SDS011;35570;48.218;16.326;2023-10-31T11:15:58;9.50;;;5.00;;
49678;SDS011;35570;48.218;16.326;2023-10-31T11:18:29;4.75;;;2.25;;
49678;SDS011;35570;48.218;16.326;2023-10-31T11:20:55;6.65;;;3.45;;
49678;SDS011;35570;48.218;16.326;2023-10-31T11:23:21;6.97;;;3.78;;
49678;SDS011;35570;48.218;16.326;2023-10-31T11:25:49;6.93;;;3.10;;
49678;SDS011;35570;48.218;16.326;2023-10-31T11:28:18;4.43;;;2.13;;
49678;SDS011;35570;48.218;16.326;2023-10-31T11:30:44;7.05;;;3.55;;
49678;SDS011;35570;48.218;16.326;2023-10-31T11:33:13;5.15;;;3.42;;
49678;SDS011;35570;48.218;16.326;2023-10-31T11:35:40;5.68;;;4.00;;
49678;SDS011;35570;48.218;16.326;2023-10-31T11:38:08;9.77;;;6.97;;
49678;SDS011;35570;48.218;16.326;2023-10-31T11:40:36;10.63;;;5.75;;
49678;SDS011;35570;48.218;16.326;2023-10-31T11:43:14;4.50;;;2.55;;
49678;SDS011;35570;48.218;16.326;2023-10-31T11:45:40;3.35;;;1.98;;
49678;SDS011;35570;48.218;16.326;2023-10-31T11:48:12;2.97;;;1.63;;
49678;SDS011;35570;48.218;16.326;2023-10-31T11:50:38;2.38;;;0.70;;
49678;SDS011;35570;48.218;16.326;2023-10-31T11:53:08;0.95;;;0.57;;
49678;SDS011;35570;48.218;16.326;2023-10-31T11:55:41;1.88;;;0.70;;
49678;SDS011;35570;48.218;16.326;2023-10-31T11:58:24;0.70;;;0.40;;
49678;SDS011;35570;48.218;16.326;2023-10-31T12:01:05;4.40;;;3.38;;
49678;SDS011;35570;48.218;16.326;2023-10-31T12:03:41;3.58;;;2.30;;
49678;SDS011;35570;48.218;16.326;2023-10-31T12:06:08;8.27;;;4.72;;
49678;SDS011;35570;48.218;16.326;2023-10-31T12:08:38;8.00;;;5.65;;
49678;SDS011;35570;48.218;16.326;2023-10-31T12:16:30;2.53;;;1.50;;
49678;SDS011;35570;48.218;16.326;2023-10-31T12:19:01;3.88;;;1.70;;
49678;SDS011;35570;48.218;16.326;2023-10-31T12:21:41;3.10;;;1.40;;
49678;SDS011;35570;48.218;16.326;2023-10-31T12:26:41;3.13;;;2.00;;
49678;SDS011;35570;48.218;16.326;2023-10-31T12:31:38;5.40;;;3.33;;
49678;SDS011;35570;48.218;16.326;2023-10-31T12:34:08;6.70;;;3.03;;
49678;SDS011;35570;48.218;16.326;2023-10-31T12:36:35;4.57;;;2.20;;
49678;SDS011;35570;48.218;16.326;2023-10-31T12:39:01;3.80;;;2.10;;
49678;SDS011;35570;48.218;16.326;2023-10-31T12:41:28;5.63;;;0.95;;
49678;SDS011;35570;48.218;16.326;2023-10-31T12:43:54;2.33;;;0.63;;
49678;SDS011;35570;48.218;16.326;2023-10-31T12:46:24;1.83;;;0.50;;
49678;SDS011;35570;48.218;16.326;2023-10-31T12:48:52;2.95;;;0.47;;
49678;SDS011;35570;48.218;16.326;2023-10-31T12:51:19;0.80;;;0.60;;
49678;SDS011;35570;48.218;16.326;2023-10-31T12:53:53;1.13;;;0.38;;
49678;SDS011;35570;48.218;16.326;2023-10-31T12:56:41;5.45;;;3.50;;
49678;SDS011;35570;48.218;16.326;2023-10-31T12:59:08;6.68;;;4.07;;
49678;SDS011;35570;48.218;16.326;2023-10-31T13:01:39;8.45;;;4.53;;
49678;SDS011;35570;48.218;16.326;2023-10-31T13:04:10;10.32;;;5.03;;
49678;SDS011;35570;48.218;16.326;2023-10-31T13:06:36;6.72;;;3.20;;
49678;SDS011;35570;48.218;16.326;2023-10-31T13:09:03;1.55;;;0.77;;
49678;SDS011;35570;48.218;16.326;2023-10-31T13:11:31;2.58;;;0.50;;
49678;SDS011;35570;48.218;16.326;2023-10-31T13:13:57;4.15;;;2.15;;
49678;SDS011;35570;48.218;16.326;2023-10-31T13:16:23;15.45;;;6.05;;
49678;SDS011;35570;48.218;16.326;2023-10-31T13:18:52;9.00;;;4.07;;
49678;SDS011;35570;48.218;16.326;2023-10-31T13:21:19;9.13;;;4.60;;
49678;SDS011;35570;48.218;16.326;2023-10-31T13:23:44;12.38;;;4.75;;
49678;SDS011;35570;48.218;16.326;2023-10-31T13:26:14;3.10;;;2.03;;
49678;SDS011;35570;48.218;16.326;2023-10-31T13:28:39;8.05;;;3.63;;
49678;SDS011;35570;48.218;16.326;2023-10-31T13:31:06;12.82;;;6.55;;
49678;SDS011;35570;48.218;16.326;2023-10-31T13:33:32;7.10;;;3.20;;
49678;SDS011;35570;48.218;16.326;2023-10-31T13:35:58;10.82;;;5.38;;
49678;SDS011;35570;48.218;16.326;2023-10-31T13:38:24;5.75;;;3.45;;
49678;SDS011;35570;48.218;16.326;2023-10-31T13:40:49;4.90;;;3.03;;
49678;SDS011;35570;48.218;16.326;2023-10-31T13:43:15;3.83;;;1.73;;
49678;SDS011;35570;48.218;16.326;2023-10-31T13:45:41;3.88;;;1.60;;
49678;SDS011;35570;48.218;16.326;2023-10-31T13:48:06;7.32;;;3.65;;
49678;SDS011;35570;48.218;16.326;2023-10-31T13:50:32;6.47;;;2.83;;
49678;SDS011;35570;48.218;16.326;2023-10-31T13:52:58;3.22;;;1.80;;
49678;SDS011;35570;48.218;16.326;2023-10-31T13:55:24;5.70;;;2.55;;
49678;SDS011;35570;48.218;16.326;2023-10-31T13:57:50;4.43;;;1.35;;
49678;SDS011;35570;48.218;16.326;2023-10-31T14:00:16;5.05;;;1.90;;
49678;SDS011;35570;48.218;16.326;2023-10-31T14:02:42;2.42;;;1.05;;
49678;SDS011;35570;48.218;16.326;2023-10-31T14:05:07;2.72;;;1.60;;
49678;SDS011;35570;48.218;16.326;2023-10-31T14:07:33;2.72;;;1.60;;
49678;SDS011;35570;48.218;16.326;2023-10-31T14:10:00;3.95;;;1.92;;
49678;SDS011;35570;48.218;16.326;2023-10-31T14:12:28;2.80;;;0.95;;
49678;SDS011;35570;48.218;16.326;2023-10-31T14:14:53;1.42;;;1.08;;
49678;SDS011;35570;48.218;16.326;2023-10-31T14:17:19;3.58;;;1.30;;
49678;SDS011;35570;48.218;16.326;2023-10-31T14:19:47;2.28;;;0.70;;
49678;SDS011;35570;48.218;16.326;2023-10-31T14:22:13;3.78;;;1.92;;
49678;SDS011;35570;48.218;16.326;2023-10-31T14:24:39;4.68;;;2.70;;
49678;SDS011;35570;48.218;16.326;2023-10-31T14:27:04;9.50;;;5.75;;
49678;SDS011;35570;48.218;16.326;2023-10-31T14:29:30;3.90;;;2.40;;
49678;SDS011;35570;48.218;16.326;2023-10-31T14:31:56;9.57;;;5.43;;
49678;SDS011;35570;48.218;16.326;2023-10-31T14:34:22;14.32;;;9.07;;
49678;SDS011;35570;48.218;16.326;2023-10-31T14:36:48;10.13;;;4.97;;
49678;SDS011;35570;48.218;16.326;2023-10-31T14:39:14;9.00;;;5.35;;
49678;SDS011;35570;48.218;16.326;2023-10-31T14:41:40;18.23;;;11.75;;
49678;SDS011;35570;48.218;16.326;2023-10-31T14:44:06;13.70;;;8.82;;
49678;SDS011;35570;48.218;16.326;2023-10-31T14:46:33;9.40;;;5.75;;
49678;SDS011;35570;48.218;16.326;2023-10-31T14:48:59;9.32;;;5.95;;
49678;SDS011;35570;48.218;16.326;2023-10-31T14:51:24;8.52;;;5.45;;
49678;SDS011;35570;48.218;16.326;2023-10-31T14:53:50;12.52;;;7.82;;
49678;SDS011;35570;48.218;16.326;2023-10-31T14:56:16;12.38;;;6.60;;
49678;SDS011;35570;48.218;16.326;2023-10-31T14:58:42;8.35;;;5.28;;
49678;SDS011;35570;48.218;16.326;2023-10-31T15:01:07;13.40;;;7.40;;
49678;SDS011;35570;48.218;16.326;2023-10-31T15:03:33;10.50;;;6.50;;
49678;SDS011;35570;48.218;16.326;2023-10-31T15:05:59;6.38;;;4.43;;
49678;SDS011;35570;48.218;16.326;2023-10-31T15:08:25;8.75;;;4.97;;
49678;SDS011;35570;48.218;16.326;2023-10-31T15:10:51;10.52;;;6.18;;
49678;SDS011;35570;48.218;16.326;2023-10-31T15:13:17;7.97;;;3.03;;
49678;SDS011;35570;48.218;16.326;2023-10-31T15:15:43;10.95;;;5.28;;
49678;SDS011;35570;48.218;16.326;2023-10-31T15:18:09;6.93;;;4.05;;
49678;SDS011;35570;48.218;16.326;2023-10-31T15:20:34;7.40;;;4.85;;
49678;SDS011;35570;48.218;16.326;2023-10-31T15:23:00;11.57;;;7.63;;
49678;SDS011;35570;48.218;16.326;2023-10-31T15:25:26;8.13;;;4.82;;
49678;SDS011;35570;48.218;16.326;2023-10-31T15:27:51;3.78;;;1.48;;
49678;SDS011;35570;48.218;16.326;2023-10-31T15:30:17;4.38;;;2.13;;
49678;SDS011;35570;48.218;16.326;2023-10-31T15:32:43;4.60;;;2.38;;
49678;SDS011;35570;48.218;16.326;2023-10-31T15:35:09;2.58;;;1.38;;
49678;SDS011;35570;48.218;16.326;2023-10-31T15:37:35;1.20;;;0.93;;
49678;SDS011;35570;48.218;16.326;2023-10-31T15:40:01;1.90;;;0.80;;
49678;SDS011;35570;48.218;16.326;2023-10-31T15:42:28;1.52;;;0.85;;
49678;SDS011;35570;48.218;16.326;2023-10-31T15:44:54;3.13;;;0.90;;
49678;SDS011;35570;48.218;16.326;2023-10-31T15:47:21;2.20;;;1.10;;
49678;SDS011;35570;48.218;16.326;2023-10-31T15:49:47;1.95;;;0.90;;
49678;SDS011;35570;48.218;16.326;2023-10-31T15:52:13;5.13;;;1.00;;
49678;SDS011;35570;48.218;16.326;2023-10-31T15:54:39;2.17;;;1.00;;
49678;SDS011;35570;48.218;16.326;2023-10-31T15:57:06;2.83;;;0.98;;
49678;SDS011;35570;48.218;16.326;2023-10-31T15:59:32;2.95;;;0.90;;
49678;SDS011;35570;48.218;16.326;2023-10-31T16:01:57;3.88;;;1.10;;
49678;SDS011;35570;48.218;16.326;2023-10-31T16:04:23;4.57;;;1.20;;
49678;SDS011;35570;48.218;16.326;2023-10-31T16:06:50;1.95;;;1.00;;
49678;SDS011;35570;48.218;16.326;2023-10-31T16:09:16;2.97;;;1.33;;
49678;SDS011;35570;48.218;16.326;2023-10-31T16:11:42;1.10;;;0.70;;
49678;SDS011;35570;48.218;16.326;2023-10-31T16:14:08;1.70;;;1.13;;
49678;SDS011;35570;48.218;16.326;2023-10-31T16:16:34;1.85;;;1.00;;
49678;SDS011;35570;48.218;16.326;2023-10-31T16:18:59;2.90;;;1.05;;
49678;SDS011;35570;48.218;16.326;2023-10-31T16:24:01;2.38;;;1.40;;
49678;SDS011;35570;48.218;16.326;2023-10-31T16:26:26;2.83;;;1.17;;
49678;SDS011;35570;48.218;16.326;2023-10-31T16:31:21;2.13;;;1.48;;
49678;SDS011;35570;48.218;16.326;2023-10-31T16:33:48;2.28;;;1.20;;
49678;SDS011;35570;48.218;16.326;2023-10-31T16:36:14;2.28;;;1.20;;
49678;SDS011;35570;48.218;16.326;2023-10-31T16:38:40;2.53;;;1.10;;
49678;SDS011;35570;48.218;16.326;2023-10-31T16:41:06;4.05;;;1.80;;
49678;SDS011;35570;48.218;16.326;2023-10-31T16:51:20;2.63;;;1.30;;
49678;SDS011;35570;48.218;16.326;2023-10-31T16:53:47;3.97;;;1.33;;
49678;SDS011;35570;48.218;16.326;2023-10-31T16:56:17;2.25;;;1.30;;
49678;SDS011;35570;48.218;16.326;2023-10-31T17:01:18;2.40;;;1.30;;
49678;SDS011;35570;48.218;16.326;2023-10-31T17:03:44;2.72;;;1.30;;
49678;SDS011;35570;48.218;16.326;2023-10-31T17:06:10;4.90;;;1.67;;
49678;SDS011;35570;48.218;16.326;2023-10-31T17:08:36;3.67;;;0.80;;
49678;SDS011;35570;48.218;16.326;2023-10-31T17:11:03;2.30;;;1.02;;
49678;SDS011;35570;48.218;16.326;2023-10-31T17:13:29;5.10;;;1.50;;
49678;SDS011;35570;48.218;16.326;2023-10-31T17:15:58;2.92;;;1.17;;
49678;SDS011;35570;48.218;16.326;2023-10-31T17:18:24;3.30;;;0.77;;
49678;SDS011;35570;48.218;16.326;2023-10-31T17:20:51;4.22;;;1.30;;
49678;SDS011;35570;48.218;16.326;2023-10-31T17:23:17;2.80;;;1.10;;
49678;SDS011;35570;48.218;16.326;2023-10-31T17:25:43;2.20;;;1.20;;
49678;SDS011;35570;48.218;16.326;2023-10-31T17:28:10;2.10;;;0.90;;
49678;SDS011;35570;48.218;16.326;2023-10-31T17:30:36;1.98;;;1.02;;
49678;SDS011;35570;48.218;16.326;2023-10-31T17:33:02;2.33;;;0.95;;
49678;SDS011;35570;48.218;16.326;2023-10-31T17:35:28;2.60;;;0.90;;
49678;SDS011;35570;48.218;16.326;2023-10-31T17:37:54;3.13;;;1.10;;
49678;SDS011;35570;48.218;16.326;2023-10-31T17:40:20;2.20;;;0.73;;
49678;SDS011;35570;48.218;16.326;2023-10-31T17:42:47;5.60;;;1.23;;
49678;SDS011;35570;48.218;16.326;2023-10-31T17:45:13;3.38;;;1.23;;
49678;SDS011;35570;48.218;16.326;2023-10-31T17:47:39;3.25;;;0.88;;
49678;SDS011;35570;48.218;16.326;2023-10-31T17:50:05;2.28;;;0.90;;
49678;SDS011;35570;48.218;16.326;2023-10-31T17:52:32;1.83;;;0.80;;
49678;SDS011;35570;48.218;16.326;2023-10-31T17:54:58;2.35;;;1.00;;
49678;SDS011;35570;48.218;16.326;2023-10-31T17:57:24;3.83;;;1.10;;
49678;SDS011;35570;48.218;16.326;2023-10-31T17:59:50;4.40;;;1.00;;
49678;SDS011;35570;48.218;16.326;2023-10-31T18:02:16;2.70;;;1.23;;
49678;SDS011;35570;48.218;16.326;2023-10-31T18:04:43;3.95;;;1.27;;
49678;SDS011;35570;48.218;16.326;2023-10-31T18:07:11;3.33;;;1.35;;
49678;SDS011;35570;48.218;16.326;2023-10-31T18:09:39;2.65;;;1.35;;
49678;SDS011;35570;48.218;16.326;2023-10-31T18:12:06;3.60;;;1.73;;
49678;SDS011;35570;48.218;16.326;2023-10-31T18:14:33;4.35;;;1.42;;
49678;SDS011;35570;48.218;16.326;2023-10-31T18:17:00;4.22;;;1.30;;
49678;SDS011;35570;48.218;16.326;2023-10-31T18:19:27;2.63;;;1.25;;
49678;SDS011;35570;48.218;16.326;2023-10-31T18:21:53;2.03;;;1.05;;
49678;SDS011;35570;48.218;16.326;2023-10-31T18:24:20;3.10;;;1.33;;
49678;SDS011;35570;48.218;16.326;2023-10-31T18:26:46;5.20;;;1.30;;
49678;SDS011;35570;48.218;16.326;2023-10-31T18:29:13;2.05;;;1.10;;
49678;SDS011;35570;48.218;16.326;2023-10-31T18:31:39;2.30;;;1.20;;
49678;SDS011;35570;48.218;16.326;2023-10-31T18:34:05;3.55;;;1.60;;
49678;SDS011;35570;48.218;16.326;2023-10-31T18:36:31;3.40;;;1.35;;
49678;SDS011;35570;48.218;16.326;2023-10-31T18:38:59;5.05;;;1.70;;
49678;SDS011;35570;48.218;16.326;2023-10-31T18:41:25;2.08;;;1.38;;
49678;SDS011;35570;48.218;16.326;2023-10-31T18:43:53;2.95;;;1.10;;
49678;SDS011;35570;48.218;16.326;2023-10-31T18:46:20;4.13;;;1.55;;
49678;SDS011;35570;48.218;16.326;2023-10-31T18:48:46;2.67;;;1.23;;
49678;SDS011;35570;48.218;16.326;2023-10-31T18:51:12;2.92;;;1.23;;
49678;SDS011;35570;48.218;16.326;2023-10-31T18:53:38;3.55;;;1.90;;
49678;SDS011;35570;48.218;16.326;2023-10-31T18:56:05;3.00;;;1.35;;
49678;SDS011;35570;48.218;16.326;2023-10-31T18:58:33;4.40;;;2.00;;
49678;SDS011;35570;48.218;16.326;2023-10-31T19:00:59;2.35;;;1.40;;
49678;SDS011;35570;48.218;16.326;2023-10-31T19:03:27;2.90;;;1.35;;
49678;SDS011;35570;48.218;16.326;2023-10-31T19:05:53;4.18;;;1.45;;
49678;SDS011;35570;48.218;16.326;2023-10-31T19:08:20;3.03;;;1.73;;
49678;SDS011;35570;48.218;16.326;2023-10-31T19:10:46;3.30;;;1.33;;
49678;SDS011;35570;48.218;16.326;2023-10-31T19:13:13;4.07;;;1.42;;
49678;SDS011;35570;48.218;16.326;2023-10-31T19:15:41;3.58;;;1.73;;
49678;SDS011;35570;48.218;16.326;2023-10-31T19:18:07;2.90;;;1.42;;
49678;SDS011;35570;48.218;16.326;2023-10-31T19:20:33;3.60;;;1.60;;
49678;SDS011;35570;48.218;16.326;2023-10-31T19:23:00;7.15;;;1.85;;
49678;SDS011;35570;48.218;16.326;2023-10-31T19:25:27;3.22;;;2.00;;
49678;SDS011;35570;48.218;16.326;2023-10-31T19:27:54;4.43;;;2.10;;
49678;SDS011;35570;48.218;16.326;2023-10-31T19:30:21;2.25;;;1.58;;
49678;SDS011;35570;48.218;16.326;2023-10-31T19:32:49;6.85;;;2.05;;
49678;SDS011;35570;48.218;16.326;2023-10-31T19:35:15;3.45;;;1.60;;
49678;SDS011;35570;48.218;16.326;2023-10-31T19:37:42;3.95;;;1.60;;
49678;SDS011;35570;48.218;16.326;2023-10-31T19:40:15;4.88;;;1.70;;
49678;SDS011;35570;48.218;16.326;2023-10-31T19:42:44;5.07;;;1.50;;
49678;SDS011;35570;48.218;16.326;2023-10-31T19:45:11;8.07;;;1.73;;
49678;SDS011;35570;48.218;16.326;2023-10-31T19:47:37;3.13;;;1.70;;
49678;SDS011;35570;48.218;16.326;2023-10-31T19:50:04;4.47;;;1.73;;
49678;SDS011;35570;48.218;16.326;2023-10-31T19:52:31;3.75;;;1.75;;
49678;SDS011;35570;48.218;16.326;2023-10-31T19:54:57;4.97;;;1.33;;
49678;SDS011;35570;48.218;16.326;2023-10-31T19:57:24;4.45;;;1.63;;
49678;SDS011;35570;48.218;16.326;2023-10-31T19:59:50;2.90;;;1.42;;
49678;SDS011;35570;48.218;16.326;2023-10-31T20:02:16;3.20;;;1.38;;
49678;SDS011;35570;48.218;16.326;2023-10-31T20:04:43;3.08;;;1.88;;
49678;SDS011;35570;48.218;16.326;2023-10-31T20:07:09;2.92;;;1.45;;
49678;SDS011;35570;48.218;16.326;2023-10-31T20:09:35;3.17;;;1.50;;
49678;SDS011;35570;48.218;16.326;2023-10-31T20:12:01;4.65;;;1.65;;
49678;SDS011;35570;48.218;16.326;2023-10-31T20:14:28;5.10;;;1.67;;
49678;SDS011;35570;48.218;16.326;2023-10-31T20:16:54;2.67;;;1.10;;
49678;SDS011;35570;48.218;16.326;2023-10-31T20:19:20;4.97;;;1.70;;
49678;SDS011;35570;48.218;16.326;2023-10-31T20:21:45;2.92;;;1.10;;
49678;SDS011;35570;48.218;16.326;2023-10-31T20:24:12;4.72;;;1.40;;
49678;SDS011;35570;48.218;16.326;2023-10-31T20:26:39;2.88;;;1.27;;
49678;SDS011;35570;48.218;16.326;2023-10-31T20:29:08;5.60;;;1.83;;
49678;SDS011;35570;48.218;16.326;2023-10-31T20:31:35;1.95;;;0.90;;
49678;SDS011;35570;48.218;16.326;2023-10-31T20:34:01;4.60;;;1.70;;